| time (UTC) | temp C | wind direction | speed KPH | gust KPH | rain 1hr cm | rain 24hr cm | rain mn cm | humidity % | barometer mb |
| 20260503175746 | 15 | 303 | 3.2 | 16.1 | 0.00 | 0.00 | 0.00 | 73 | 1012.8 |
| 20260503174747 | 15 | 311 | 4.8 | 14.5 | 0.00 | 0.00 | 0.00 | 72 | 1012.7 |
| 20260503174246 | 15 | 324 | 6.4 | 17.7 | 0.00 | 0.00 | 0.00 | 71 | 1012.6 |
| 20260503173245 | 15 | 285 | 1.6 | 16.1 | 0.00 | 0.00 | 0.00 | 72 | 1012.5 |
| 20260503172746 | 15 | 265 | 8.0 | 19.3 | 0.00 | 0.00 | 0.00 | 71 | 1012.5 |
| 20260503172246 | 16 | 319 | 4.8 | 19.3 | 0.00 | 0.00 | 0.00 | 69 | 1012.4 |
| 20260503171746 | 16 | 264 | 8.0 | 20.9 | 0.00 | 0.00 | 0.00 | 69 | 1012.5 |
| 20260503170745 | 16 | 283 | 6.4 | 16.1 | 0.00 | 0.00 | 0.00 | 71 | 1012.3 |
| 20260503170245 | 16 | 265 | 4.8 | 16.1 | 0.00 | 0.00 | 0.00 | 70 | 1012.4 |
| 20260503150745 | 12 | 303 | 3.2 | 11.3 | 0.00 | 0.00 | 0.00 | 80 | 1012.0 |
| 20260503150245 | 12 | 249 | 3.2 | 11.3 | 0.00 | 0.00 | 0.00 | 81 | 1012.0 |
| 20260503140247 | 12 | 272 | 4.8 | 14.5 | 0.00 | 0.00 | 0.00 | 81 | 1011.4 |
| 20260503131245 | 12 | 274 | 4.8 | 16.1 | 0.00 | 0.00 | 0.00 | 81 | 1010.7 |
| 20260503130745 | 12 | 0 | 0.0 | 12.9 | 0.00 | 0.00 | 0.00 | 81 | 1010.7 |
| 20260503130245 | 12 | 308 | 1.6 | 12.9 | 0.00 | 0.00 | 0.00 | 81 | 1010.6 |
| 20260503110412 | 12 | 0 | 0.0 | 19.3 | 0.00 | 0.00 | 0.00 | 81 | 1010.5 |
| 20260503081549 | 12 | 258 | 3.2 | 9.7 | 0.00 | 0.00 | 0.00 | 81 | 1011.1 |
| 20260503080548 | 12 | 0 | 0.0 | 11.3 | 0.00 | 0.00 | 0.00 | 81 | 1011.3 |
| 20260503072548 | 12 | 309 | 4.8 | 9.7 | 0.00 | 0.00 | 0.00 | 81 | 1011.3 |
| 20260503072048 | 12 | 0 | 0.0 | 8.0 | 0.00 | 0.00 | 0.00 | 81 | 1011.4 |
| 20260503071548 | 12 | 208 | 1.6 | 8.0 | 0.00 | 0.00 | 0.00 | 81 | 1011.3 |
| 20260503071049 | 12 | 254 | 1.6 | 8.0 | 0.00 | 0.00 | 0.00 | 81 | 1011.3 |
| 20260503070909 | 12 | 277 | 1.6 | 4.8 | 0.00 | 0.00 | 0.00 | 81 | 1011.4 |
| 20260503070548 | 12 | 277 | 1.6 | 4.8 | 0.00 | 0.00 | 0.00 | 81 | 1011.4 |
| 20260503055048 | 12 | 277 | 6.4 | 14.5 | 0.00 | 0.00 | 0.00 | 81 | 1011.8 |
| 20260503054548 | 12 | 277 | 3.2 | 14.5 | 0.00 | 0.00 | 0.00 | 81 | 1011.9 |
| 20260503054048 | 12 | 250 | 4.8 | 16.1 | 0.00 | 0.00 | 0.00 | 81 | 1011.9 |
| 20260503053549 | 12 | 263 | 6.4 | 16.1 | 0.00 | 0.00 | 0.00 | 82 | 1011.9 |
| 20260503053048 | 12 | 272 | 1.6 | 9.7 | 0.00 | 0.00 | 0.00 | 82 | 1011.9 |
| 20260503052548 | 12 | 279 | 1.6 | 9.7 | 0.00 | 0.00 | 0.00 | 82 | 1011.9 |
| 20260503052048 | 12 | 0 | 0.0 | 9.7 | 0.00 | 0.00 | 0.00 | 82 | 1011.9 |
| 20260503051548 | 12 | 0 | 0.0 | 9.7 | 0.00 | 0.00 | 0.00 | 82 | 1011.9 |
| 20260503051048 | 12 | 251 | 3.2 | 11.3 | 0.00 | 0.00 | 0.00 | 82 | 1011.9 |
| 20260503050548 | 12 | 263 | 3.2 | 11.3 | 0.00 | 0.00 | 0.00 | 82 | 1011.9 |
| 20260503050048 | 12 | 0 | 0.0 | 4.8 | 0.00 | 0.00 | 0.00 | 82 | 1011.8 |
| 20260503045528 | 12 | 244 | 1.6 | 11.3 | 0.00 | 0.00 | 0.00 | 82 | 1011.8 |
| 20260503045028 | 12 | 244 | 1.6 | 11.3 | 0.00 | 0.00 | 0.00 | 82 | 1011.7 |
| 20260503044028 | 12 | 263 | 3.2 | 8.0 | 0.00 | 0.00 | 0.00 | 82 | 1011.7 |
| 20260503043528 | 12 | 0 | 0.0 | 8.0 | 0.00 | 0.00 | 0.00 | 81 | 1011.6 |
| 20260503043028 | 12 | 278 | 1.6 | 6.4 | 0.00 | 0.00 | 0.00 | 81 | 1011.6 |
| 20260503042528 | 12 | 283 | 3.2 | 9.7 | 0.00 | 0.00 | 0.00 | 81 | 1011.5 |
| 20260503042028 | 12 | 289 | 3.2 | 9.7 | 0.00 | 0.00 | 0.00 | 81 | 1011.6 |
| 20260503041528 | 12 | 303 | 1.6 | 6.4 | 0.00 | 0.00 | 0.00 | 81 | 1011.5 |
| 20260503040735 | 12 | 247 | 1.6 | 11.3 | 0.00 | 0.00 | 0.00 | 81 | 1011.4 |
| 20260503040606 | 12 | 0 | 0.0 | 6.4 | 0.00 | 0.00 | 0.00 | 81 | 1011.5 |
| 20260503040235 | 12 | 0 | 0.0 | 6.4 | 0.00 | 0.00 | 0.00 | 81 | 1011.5 |
| 20260503035735 | 12 | 289 | 1.6 | 6.4 | 0.00 | 0.00 | 0.00 | 81 | 1011.4 |
| 20260503035235 | 12 | 298 | 1.6 | 6.4 | 0.00 | 0.00 | 0.00 | 81 | 1011.3 |
| 20260503034735 | 12 | 311 | 1.6 | 12.9 | 0.00 | 0.00 | 0.00 | 81 | 1011.3 |
| 20260503034235 | 12 | 316 | 1.6 | 12.9 | 0.00 | 0.00 | 0.00 | 80 | 1011.3 |
| 20260503033735 | 12 | 316 | 1.6 | 16.1 | 0.00 | 0.00 | 0.00 | 80 | 1011.2 |
| 20260503033235 | 12 | 333 | 3.2 | 16.1 | 0.00 | 0.00 | 0.00 | 80 | 1011.2 |
| 20260503032735 | 12 | 344 | 3.2 | 14.5 | 0.00 | 0.00 | 0.00 | 80 | 1011.1 |
| 20260503032235 | 12 | 292 | 3.2 | 14.5 | 0.00 | 0.00 | 0.00 | 80 | 1011.1 |
| 20260503031735 | 13 | 297 | 4.8 | 12.9 | 0.00 | 0.00 | 0.00 | 80 | 1011.0 |
| 20260503031235 | 13 | 313 | 1.6 | 12.9 | 0.00 | 0.00 | 0.00 | 79 | 1010.9 |
| 20260503030735 | 13 | 0 | 0.0 | 8.0 | 0.00 | 0.00 | 0.00 | 79 | 1010.8 |
| 20260503030235 | 13 | 15 | 1.6 | 9.7 | 0.00 | 0.00 | 0.00 | 79 | 1010.8 |
| 20260503025235 | 13 | 317 | 3.2 | 11.3 | 0.00 | 0.00 | 0.00 | 78 | 1010.8 |
| 20260503024735 | 13 | 320 | 4.8 | 11.3 | 0.00 | 0.00 | 0.00 | 77 | 1010.7 |
| 20260503024235 | 13 | 0 | 0.0 | 11.3 | 0.00 | 0.00 | 0.00 | 77 | 1010.7 |
| 20260503023358 | 13 | 331 | 3.2 | 8.0 | 0.00 | 0.00 | 0.00 | 77 | 1010.6 |
| 20260503022858 | 13 | 0 | 0.0 | 11.3 | 0.00 | 0.00 | 0.00 | 76 | 1010.6 |
| 20260503021358 | 13 | 306 | 3.2 | 12.9 | 0.00 | 0.00 | 0.00 | 75 | 1010.6 |
| 20260503020358 | 13 | 284 | 4.8 | 17.7 | 0.00 | 0.00 | 0.00 | 75 | 1010.6 |
| 20260503015858 | 14 | 294 | 8.0 | 17.7 | 0.00 | 0.00 | 0.00 | 74 | 1010.5 |
| 20260503015358 | 14 | 293 | 8.0 | 17.7 | 0.00 | 0.00 | 0.00 | 73 | 1010.6 |
| 20260503013858 | 15 | 251 | 4.8 | 20.9 | 0.00 | 0.00 | 0.00 | 71 | 1010.5 |
| 20260503013358 | 15 | 275 | 4.8 | 17.7 | 0.00 | 0.00 | 0.00 | 71 | 1010.5 |
| 20260503012858 | 15 | 279 | 6.4 | 17.7 | 0.00 | 0.00 | 0.00 | 71 | 1010.6 |
| 20260503012358 | 15 | 303 | 6.4 | 20.9 | 0.00 | 0.00 | 0.00 | 70 | 1010.6 |
| 20260503011858 | 15 | 296 | 9.7 | 20.9 | 0.00 | 0.00 | 0.00 | 70 | 1010.6 |
| 20260503011358 | 15 | 294 | 8.0 | 17.7 | 0.00 | 0.00 | 0.00 | 70 | 1010.7 |
| 20260503010858 | 15 | 281 | 4.8 | 17.7 | 0.00 | 0.00 | 0.00 | 70 | 1010.7 |
| 20260503010358 | 15 | 276 | 4.8 | 17.7 | 0.00 | 0.00 | 0.00 | 70 | 1010.7 |
| 20260503005358 | 15 | 274 | 6.4 | 17.7 | 0.00 | 0.00 | 0.00 | 69 | 1010.7 |
| 20260503004415 | 16 | 304 | 6.4 | 27.4 | 0.00 | 0.00 | 0.00 | 68 | 1010.7 |
| 20260503003415 | 16 | 322 | 8.0 | 20.9 | 0.00 | 0.00 | 0.00 | 68 | 1010.6 |
| 20260503002915 | 16 | 306 | 11.3 | 20.9 | 0.00 | 0.00 | 0.00 | 67 | 1010.7 |
| 20260503002417 | 16 | 333 | 9.7 | 19.3 | 0.00 | 0.00 | 0.00 | 67 | 1010.6 |
| 20260503001915 | 16 | 344 | 6.4 | 20.9 | 0.00 | 0.00 | 0.00 | 68 | 1010.6 |
| 20260503000415 | 16 | 350 | 4.8 | 24.1 | 0.00 | 0.00 | 0.00 | 67 | 1010.7 |
| 20260502235915 | 16 | 311 | 4.8 | 27.4 | 0.00 | 0.00 | 0.00 | 66 | 1010.7 |
| 20260502235415 | 17 | 296 | 9.7 | 27.4 | 0.00 | 0.00 | 0.00 | 66 | 1010.8 |
| 20260502234915 | 17 | 3 | 8.0 | 22.5 | 0.00 | 0.00 | 0.00 | 65 | 1010.9 |
| 20260502234415 | 17 | 289 | 9.7 | 24.1 | 0.00 | 0.00 | 0.00 | 65 | 1010.9 |
| 20260502233915 | 17 | 309 | 6.4 | 24.1 | 0.00 | 0.00 | 0.00 | 65 | 1010.9 |
| 20260502232915 | 17 | 290 | 8.0 | 22.5 | 0.00 | 0.00 | 0.00 | 64 | 1011.0 |
| 20260502232415 | 17 | 312 | 9.7 | 25.7 | 0.00 | 0.00 | 0.00 | 64 | 1011.1 |
| 20260502231915 | 17 | 307 | 9.7 | 25.7 | 0.00 | 0.00 | 0.00 | 64 | 1011.2 |
| 20260502231416 | 17 | 310 | 12.9 | 24.1 | 0.00 | 0.00 | 0.00 | 63 | 1011.2 |
| 20260502230915 | 17 | 351 | 8.0 | 24.1 | 0.00 | 0.00 | 0.00 | 63 | 1011.2 |
| 20260502230415 | 18 | 289 | 11.3 | 27.4 | 0.00 | 0.00 | 0.00 | 63 | 1011.4 |
| 20260502230234 | 12 | 0 | 0.0 | 17.7 | 0.00 | 0.00 | 0.00 | 81 | 1012.6 |
| 20260502225915 | 18 | 276 | 9.7 | 27.4 | 0.00 | 0.00 | 0.00 | 63 | 1011.4 |
| 20260502225348 | 18 | 311 | 11.3 | 29.0 | 0.00 | 0.00 | 0.00 | 61 | 1011.4 |
| 20260502224849 | 18 | 306 | 9.7 | 29.0 | 0.00 | 0.00 | 0.00 | 61 | 1011.5 |
| 20260502224348 | 18 | 290 | 9.7 | 20.9 | 0.00 | 0.00 | 0.00 | 62 | 1011.5 |
| 20260502223848 | 18 | 295 | 8.0 | 24.1 | 0.00 | 0.00 | 0.00 | 62 | 1011.6 |
| 20260502223348 | 18 | 257 | 6.4 | 24.1 | 0.00 | 0.00 | 0.00 | 62 | 1011.7 |
| 20260502222848 | 18 | 308 | 11.3 | 29.0 | 0.00 | 0.00 | 0.00 | 63 | 1011.7 |
| 20260502222348 | 18 | 292 | 14.5 | 29.0 | 0.00 | 0.00 | 0.00 | 61 | 1011.8 |
| 20260502221848 | 18 | 277 | 12.9 | 22.5 | 0.00 | 0.00 | 0.00 | 62 | 1012.0 |
| 20260502220848 | 18 | 261 | 8.0 | 27.4 | 0.00 | 0.00 | 0.00 | 63 | 1011.9 |
| 20260502220348 | 18 | 246 | 8.0 | 27.4 | 0.00 | 0.00 | 0.00 | 63 | 1011.9 |
| 20260502215637 | 18 | 264 | 12.9 | 25.7 | 0.00 | 0.00 | 0.00 | 63 | 1012.1 |
| 20260502214637 | 18 | 312 | 9.7 | 25.7 | 0.00 | 0.00 | 0.00 | 64 | 1012.2 |
| 20260502214137 | 18 | 282 | 11.3 | 25.7 | 0.00 | 0.00 | 0.00 | 63 | 1012.3 |
| 20260502213637 | 18 | 284 | 9.7 | 25.7 | 0.00 | 0.00 | 0.00 | 65 | 1012.2 |
| 20260502213137 | 17 | 274 | 6.4 | 29.0 | 0.00 | 0.00 | 0.00 | 65 | 1012.4 |
| 20260502212637 | 17 | 271 | 9.7 | 29.0 | 0.00 | 0.00 | 0.00 | 64 | 1012.3 |
| 20260502212137 | 17 | 305 | 12.9 | 29.0 | 0.00 | 0.00 | 0.00 | 65 | 1012.4 |
| 20260502211637 | 17 | 304 | 11.3 | 29.0 | 0.00 | 0.00 | 0.00 | 66 | 1012.6 |
| 20260502211138 | 17 | 289 | 9.7 | 25.7 | 0.00 | 0.00 | 0.00 | 67 | 1012.7 |
| 20260502210637 | 17 | 285 | 9.7 | 25.7 | 0.00 | 0.00 | 0.00 | 68 | 1012.7 |
| 20260502205637 | 17 | 297 | 12.9 | 20.9 | 0.00 | 0.00 | 0.00 | 68 | 1012.9 |
| 20260502204637 | 17 | 322 | 9.7 | 20.9 | 0.00 | 0.00 | 0.00 | 69 | 1013.0 |
| 20260502204137 | 17 | 228 | 3.2 | 24.1 | 0.00 | 0.00 | 0.00 | 69 | 1012.9 |
| 20260502203637 | 17 | 290 | 11.3 | 24.1 | 0.00 | 0.00 | 0.00 | 69 | 1013.0 |
| 20260502203137 | 17 | 293 | 4.8 | 20.9 | 0.00 | 0.00 | 0.00 | 70 | 1013.0 |
| 20260502202637 | 17 | 291 | 4.8 | 20.9 | 0.00 | 0.00 | 0.00 | 71 | 1013.1 |
| 20260502202137 | 17 | 310 | 6.4 | 17.7 | 0.00 | 0.00 | 0.00 | 71 | 1013.2 |
| 20260502201637 | 17 | 297 | 4.8 | 17.7 | 0.00 | 0.00 | 0.00 | 71 | 1013.2 |
| 20260502201137 | 17 | 288 | 3.2 | 20.9 | 0.00 | 0.00 | 0.00 | 72 | 1013.3 |
| 20260502200639 | 16 | 226 | 4.8 | 20.9 | 0.00 | 0.00 | 0.00 | 72 | 1013.2 |
| 20260502200137 | 16 | 258 | 9.7 | 20.9 | 0.00 | 0.00 | 0.00 | 73 | 1013.3 |
| 20260502195637 | 16 | 224 | 3.2 | 20.9 | 0.00 | 0.00 | 0.00 | 76 | 1013.3 |
| 20260502194638 | 15 | 284 | 11.3 | 22.5 | 0.00 | 0.00 | 0.00 | 76 | 1013.4 |
| 20260502194137 | 15 | 245 | 8.0 | 24.1 | 0.00 | 0.00 | 0.00 | 77 | 1013.3 |
| 20260502193637 | 15 | 281 | 12.9 | 25.7 | 0.00 | 0.00 | 0.00 | 77 | 1013.4 |
| 20260502193137 | 15 | 286 | 4.8 | 25.7 | 0.00 | 0.00 | 0.00 | 78 | 1013.4 |
| 20260502192137 | 15 | 268 | 12.9 | 24.1 | 0.00 | 0.00 | 0.00 | 77 | 1013.4 |
| 20260502191637 | 15 | 282 | 8.0 | 24.1 | 0.00 | 0.00 | 0.00 | 78 | 1013.4 |
| 20260502191137 | 15 | 293 | 6.4 | 22.5 | 0.00 | 0.00 | 0.00 | 77 | 1013.5 |
| 20260502190637 | 15 | 285 | 11.3 | 22.5 | 0.00 | 0.00 | 0.00 | 77 | 1013.5 |
| 20260502190137 | 15 | 304 | 8.0 | 24.1 | 0.00 | 0.00 | 0.00 | 78 | 1013.4 |
| 20260502185137 | 15 | 283 | 9.7 | 24.1 | 0.00 | 0.00 | 0.00 | 79 | 1013.5 |
| 20260502184637 | 14 | 274 | 8.0 | 24.1 | 0.00 | 0.00 | 0.00 | 80 | 1013.5 |
| 20260502183637 | 14 | 292 | 6.4 | 24.1 | 0.00 | 0.00 | 0.00 | 81 | 1013.5 |
| 20260502183137 | 13 | 318 | 9.7 | 24.1 | 0.00 | 0.00 | 0.00 | 81 | 1013.4 |
| 20260502181637 | 13 | 296 | 3.2 | 20.9 | 0.00 | 0.00 | 0.00 | 82 | 1013.4 |
| 20260502180637 | 13 | 308 | 8.0 | 24.1 | 0.00 | 0.00 | 0.00 | 81 | 1013.4 |